createdAt,value
2023-03-31T00:00:11.961Z,93654.03
2023-03-31T00:01:09.140Z,93645.41
2023-03-31T00:02:13.789Z,93645.94
2023-03-31T00:03:22.573Z,93674.72
2023-03-31T00:04:24.022Z,93686.63
2023-03-31T00:05:21.514Z,93629.50
2023-03-31T00:06:18.965Z,93678.94
2023-03-31T00:07:16.307Z,93676.84
2023-03-31T00:08:14.110Z,93674.72
2023-03-31T00:09:19.014Z,93672.75
2023-03-31T00:10:19.435Z,93672.53
2023-03-31T00:11:16.054Z,93673.06
2023-03-31T00:12:14.258Z,93667.97
2023-03-31T00:13:11.370Z,93649.44
2023-03-31T00:14:08.716Z,93661.03
2023-03-31T00:15:05.868Z,93664.66
2023-03-31T00:16:06.066Z,93668.63
2023-03-31T00:17:04.492Z,93623.88
2023-03-31T00:18:02.419Z,93666.00
2023-03-31T00:18:59.084Z,93647.06
2023-03-31T00:20:00.502Z,93657.34
2023-03-31T00:21:24.411Z,93661.38
2023-03-31T00:22:27.405Z,93664.94
2023-03-31T00:23:27.907Z,93656.41
2023-03-31T00:24:24.511Z,93666.94
2023-03-31T00:25:21.114Z,93665.81
2023-03-31T00:26:17.715Z,93668.59
2023-03-31T00:27:14.696Z,93662.81
2023-03-31T00:28:11.238Z,93664.13
2023-03-31T00:29:09.620Z,93663.78
2023-03-31T00:30:06.940Z,93669.34
2023-03-31T00:31:04.365Z,93670.53
2023-03-31T00:32:01.110Z,93670.47
2023-03-31T00:32:57.853Z,93675.06
2023-03-31T00:33:54.544Z,93661.31
2023-03-31T00:34:51.361Z,93639.81
2023-03-31T00:35:51.953Z,93665.44
2023-03-31T00:36:49.016Z,93631.25
2023-03-31T00:37:45.969Z,93660.69
2023-03-31T00:38:46.163Z,93662.81
2023-03-31T00:39:43.360Z,93652.81
2023-03-31T00:40:45.933Z,93650.13
2023-03-31T00:41:42.469Z,93649.56
2023-03-31T00:42:43.399Z,93605.59
2023-03-31T00:43:40.877Z,93647.47
2023-03-31T00:44:59.906Z,93652.69
2023-03-31T00:46:22.335Z,93653.50
2023-03-31T00:47:21.113Z,93614.97
2023-03-31T00:48:19.807Z,93648.78
2023-03-31T00:49:23.791Z,93646.06
2023-03-31T00:50:23.503Z,93576.91
2023-03-31T00:51:23.030Z,93642.44
2023-03-31T00:52:22.891Z,93648.88
2023-03-31T00:53:24.759Z,93643.44
2023-03-31T00:54:26.539Z,93646.00
2023-03-31T00:55:28.910Z,93641.31
2023-03-31T00:56:28.913Z,93638.81
2023-03-31T00:57:28.700Z,93606.19
2023-03-31T00:58:28.955Z,93634.09
2023-03-31T00:59:29.656Z,93632.41
2023-03-31T01:00:26.302Z,93636.34
2023-03-31T01:01:26.691Z,93596.13
2023-03-31T01:02:25.771Z,93637.41
2023-03-31T01:03:23.775Z,93640.69
2023-03-31T01:04:22.823Z,93643.63
2023-03-31T01:05:24.097Z,93625.97
2023-03-31T01:06:20.923Z,93639.53
2023-03-31T01:07:18.525Z,93653.47
2023-03-31T01:08:17.139Z,93637.31
2023-03-31T01:09:17.057Z,93601.78
2023-03-31T01:10:14.489Z,93637.22
2023-03-31T01:11:14.018Z,93637.63
2023-03-31T01:12:11.116Z,93637.38
2023-03-31T01:13:12.572Z,93629.19
2023-03-31T01:14:10.638Z,93640.47
2023-03-31T01:15:08.592Z,93635.22
2023-03-31T01:16:05.488Z,93638.53
2023-03-31T01:17:02.993Z,93605.78
2023-03-31T01:18:01.060Z,93645.28
2023-03-31T01:18:57.876Z,93648.19
2023-03-31T01:20:18.347Z,93645.34
2023-03-31T01:21:23.443Z,93647.31
2023-03-31T01:22:28.785Z,93649.81
2023-03-31T01:23:46.584Z,93649.75
2023-03-31T01:25:14.196Z,93645.88
2023-03-31T01:26:13.502Z,93648.94
2023-03-31T01:27:38.947Z,93646.63
2023-03-31T01:28:35.532Z,93644.06
2023-03-31T01:30:06.907Z,93643.53
2023-03-31T01:31:03.774Z,93646.81
2023-03-31T01:32:32.344Z,93608.03
2023-03-31T01:34:00.416Z,93652.31
2023-03-31T01:35:15.166Z,93653.28
2023-03-31T01:36:23.626Z,93651.59
2023-03-31T01:37:21.274Z,93654.63
2023-03-31T01:38:17.814Z,93653.59
2023-03-31T01:39:20.358Z,93653.16
2023-03-31T01:40:16.834Z,93657.56
2023-03-31T01:41:31.917Z,93659.28
2023-03-31T01:42:43.139Z,93647.78
2023-03-31T01:44:19.567Z,93654.09
2023-03-31T01:45:28.386Z,93637.69
2023-03-31T01:46:34.030Z,93663.56
2023-03-31T01:47:46.148Z,93658.47
2023-03-31T01:49:01.906Z,93661.72
2023-03-31T01:50:11.575Z,93556.75
2023-03-31T01:51:17.830Z,93666.59
2023-03-31T01:52:31.226Z,93661.34
2023-03-31T01:53:54.927Z,93668.88
2023-03-31T01:54:52.199Z,93669.78
2023-03-31T01:56:08.138Z,93667.88
2023-03-31T01:57:19.237Z,93667.25
2023-03-31T01:58:22.917Z,93666.91
2023-03-31T01:59:34.582Z,93669.31
2023-03-31T02:00:37.249Z,93676.59
2023-03-31T02:01:59.883Z,93635.06
2023-03-31T02:03:04.268Z,93669.88
2023-03-31T02:04:10.634Z,93673.56
2023-03-31T02:05:12.273Z,93679.06
2023-03-31T02:06:15.480Z,93680.44
2023-03-31T02:07:27.705Z,93677.78
2023-03-31T02:08:31.297Z,93655.88
2023-03-31T02:09:35.263Z,93676.03
2023-03-31T02:10:33.275Z,93676.88
2023-03-31T02:11:33.479Z,93686.44
2023-03-31T02:12:33.431Z,93676.06
2023-03-31T02:13:34.320Z,93676.19
2023-03-31T02:14:32.814Z,93646.84
2023-03-31T02:15:35.144Z,93674.13
2023-03-31T02:16:35.434Z,93678.88
2023-03-31T02:17:33.048Z,93686.53
2023-03-31T02:18:33.271Z,93680.00
2023-03-31T02:19:34.399Z,93681.88
2023-03-31T02:20:32.661Z,93687.97
2023-03-31T02:21:36.246Z,93605.81
2023-03-31T02:22:37.152Z,93669.94
2023-03-31T02:23:37.786Z,93689.81
2023-03-31T02:24:37.779Z,93649.03
2023-03-31T02:25:46.442Z,93653.69
2023-03-31T02:26:52.302Z,93682.72
2023-03-31T02:28:04.094Z,93691.47
2023-03-31T02:29:00.905Z,93697.03
2023-03-31T02:29:58.015Z,93694.38
2023-03-31T02:31:18.112Z,93696.25
2023-03-31T02:32:29.962Z,93694.59
2023-03-31T02:33:26.662Z,93696.13
2023-03-31T02:34:23.737Z,93699.81
2023-03-31T02:35:22.203Z,93696.91
2023-03-31T02:36:19.407Z,93695.16
2023-03-31T02:37:16.679Z,93698.47
2023-03-31T02:38:13.414Z,93697.91
2023-03-31T02:39:15.685Z,93697.34
2023-03-31T02:40:21.761Z,93700.13
2023-03-31T02:41:18.494Z,93695.34
2023-03-31T02:42:16.177Z,93697.78
2023-03-31T02:43:12.891Z,93697.56
2023-03-31T02:44:11.422Z,93695.34
2023-03-31T02:45:33.720Z,93697.53
2023-03-31T02:46:32.481Z,93700.88
2023-03-31T02:47:29.207Z,93698.06
2023-03-31T02:48:34.133Z,93693.88
2023-03-31T02:49:31.724Z,93691.91
2023-03-31T02:50:38.641Z,93701.63
2023-03-31T02:51:59.571Z,93699.59
2023-03-31T02:53:24.383Z,93688.41
2023-03-31T02:54:48.329Z,93690.09
2023-03-31T02:56:02.319Z,93693.28
2023-03-31T02:57:18.991Z,93685.97
2023-03-31T02:58:41.200Z,93687.53
2023-03-31T03:00:16.378Z,93678.91
2023-03-31T03:01:36.693Z,93673.69
2023-03-31T03:03:09.419Z,93675.97
2023-03-31T03:04:09.600Z,93662.81
2023-03-31T03:05:22.629Z,93655.44
2023-03-31T03:06:32.537Z,93608.97
2023-03-31T03:07:58.164Z,93612.75
2023-03-31T03:09:12.951Z,93652.91
2023-03-31T03:10:12.482Z,93639.09
2023-03-31T03:11:31.276Z,93638.34
2023-03-31T03:12:38.501Z,93639.50
2023-03-31T03:13:39.249Z,93645.91
2023-03-31T03:14:54.459Z,93646.31
2023-03-31T03:16:03.987Z,93642.41
2023-03-31T03:17:09.626Z,93642.03
2023-03-31T03:18:06.744Z,93642.03
2023-03-31T03:19:06.574Z,93594.41
2023-03-31T03:20:08.418Z,93637.25
2023-03-31T03:21:05.288Z,93637.38
2023-03-31T03:22:02.043Z,93634.28
2023-03-31T03:22:58.655Z,93640.94
2023-03-31T03:23:55.816Z,93641.00
2023-03-31T03:24:53.539Z,93642.03
2023-03-31T03:25:51.202Z,93596.22
2023-03-31T03:26:48.306Z,93619.50
2023-03-31T03:27:44.938Z,93640.13
2023-03-31T03:28:41.664Z,93638.25
2023-03-31T03:29:38.310Z,93639.81
2023-03-31T03:30:34.939Z,93641.25
2023-03-31T03:31:33.689Z,93635.19
2023-03-31T03:32:31.139Z,93630.34
2023-03-31T03:33:27.767Z,93496.66
2023-03-31T03:34:25.665Z,93628.84
2023-03-31T03:35:22.351Z,93610.09
2023-03-31T03:36:20.024Z,93634.28
2023-03-31T03:37:16.754Z,93641.25
2023-03-31T03:38:13.445Z,93637.16
2023-03-31T03:39:10.066Z,93638.09
2023-03-31T03:40:07.436Z,93630.34
2023-03-31T03:41:04.628Z,93634.97
2023-03-31T03:42:01.379Z,93631.53
2023-03-31T03:42:58.036Z,93571.00
2023-03-31T03:43:54.648Z,93634.91
2023-03-31T03:44:51.259Z,93629.25
2023-03-31T03:45:49.605Z,93631.13
2023-03-31T03:46:46.207Z,93636.44
2023-03-31T03:47:43.078Z,93628.34
2023-03-31T03:48:39.744Z,93609.31
2023-03-31T03:49:36.322Z,93627.41
2023-03-31T03:50:36.331Z,93628.84
2023-03-31T03:51:32.966Z,93622.03
2023-03-31T03:52:29.856Z,93626.44
2023-03-31T03:53:26.858Z,93627.75
2023-03-31T03:54:23.459Z,93626.66
2023-03-31T03:55:20.126Z,93617.78
2023-03-31T03:56:16.868Z,93629.81
2023-03-31T03:57:13.488Z,93628.34
2023-03-31T03:58:10.269Z,93615.81
2023-03-31T03:59:07.158Z,93628.09
2023-03-31T04:00:09.983Z,93625.56
2023-03-31T04:01:06.786Z,93628.25
2023-03-31T04:02:03.677Z,93628.00
2023-03-31T04:03:00.682Z,93627.69
2023-03-31T04:03:57.438Z,93622.94
2023-03-31T04:04:54.050Z,93624.41
2023-03-31T04:05:50.944Z,93629.72
2023-03-31T04:06:47.912Z,93630.81
2023-03-31T04:07:44.635Z,93624.66
2023-03-31T04:08:41.641Z,93623.09
2023-03-31T04:09:38.338Z,93611.38
2023-03-31T04:10:36.077Z,93618.41
2023-03-31T04:11:32.867Z,93631.19
2023-03-31T04:12:29.406Z,93636.03
2023-03-31T04:13:26.094Z,93626.19
2023-03-31T04:14:22.728Z,93626.59
2023-03-31T04:15:19.294Z,93619.38
2023-03-31T04:16:16.919Z,93629.34
2023-03-31T04:17:16.050Z,93636.53
2023-03-31T04:18:33.078Z,93631.28
2023-03-31T04:19:29.865Z,93635.84
2023-03-31T04:20:30.669Z,93612.38
2023-03-31T04:21:27.341Z,93636.78
2023-03-31T04:22:29.273Z,93607.75
2023-03-31T04:23:26.729Z,93622.59
2023-03-31T04:24:30.597Z,93622.06
2023-03-31T04:25:30.822Z,93630.28
2023-03-31T04:26:39.131Z,93631.06
2023-03-31T04:27:36.211Z,93624.03
2023-03-31T04:28:35.091Z,93632.81
2023-03-31T04:29:33.750Z,93629.56
2023-03-31T04:30:33.509Z,93626.63
2023-03-31T04:31:30.927Z,93621.69
2023-03-31T04:32:28.492Z,93584.03
2023-03-31T04:33:25.084Z,93623.50
2023-03-31T04:34:26.921Z,93624.31
2023-03-31T04:35:26.340Z,93627.88
2023-03-31T04:36:23.062Z,93628.69
2023-03-31T04:37:19.796Z,93624.44
2023-03-31T04:38:20.761Z,93583.00
2023-03-31T04:39:26.664Z,93627.75
2023-03-31T04:40:23.276Z,93624.66
2023-03-31T04:41:20.355Z,93623.16
2023-03-31T04:42:16.923Z,93622.19
2023-03-31T04:43:13.866Z,93614.88
2023-03-31T04:44:10.889Z,93624.50
2023-03-31T04:45:08.016Z,93623.91
2023-03-31T04:46:05.057Z,93613.13
2023-03-31T04:47:03.265Z,93626.63
2023-03-31T04:48:00.026Z,93633.50
2023-03-31T04:48:57.154Z,93591.06
2023-03-31T04:49:53.934Z,93630.59
2023-03-31T04:50:50.561Z,93598.50
2023-03-31T04:51:50.384Z,93631.38
2023-03-31T04:52:46.957Z,93595.69
2023-03-31T04:53:43.566Z,93631.69
2023-03-31T04:54:40.491Z,93638.69
2023-03-31T04:55:37.051Z,93624.66
2023-03-31T04:56:34.174Z,93634.28
2023-03-31T04:57:30.994Z,93625.31
2023-03-31T04:58:27.645Z,93630.63
2023-03-31T04:59:24.238Z,93626.97
2023-03-31T05:00:21.663Z,93631.19
2023-03-31T05:01:18.416Z,93616.25
2023-03-31T05:02:23.642Z,93627.91
2023-03-31T05:03:21.945Z,93629.97
2023-03-31T05:04:18.634Z,93621.81
2023-03-31T05:05:15.595Z,93615.94
2023-03-31T05:06:12.343Z,93615.81
2023-03-31T05:07:08.951Z,93583.63
2023-03-31T05:08:05.807Z,93616.28
2023-03-31T05:09:02.444Z,93611.75
2023-03-31T05:09:59.037Z,93607.66
2023-03-31T05:10:55.717Z,93602.34
2023-03-31T05:11:52.396Z,93573.34
2023-03-31T05:12:49.455Z,93596.69
2023-03-31T05:13:46.751Z,93593.06
2023-03-31T05:14:43.462Z,93597.66
2023-03-31T05:15:40.368Z,93555.50
2023-03-31T05:16:37.174Z,93593.25
2023-03-31T05:17:35.736Z,93602.91
2023-03-31T05:18:32.347Z,93600.56
2023-03-31T05:19:28.931Z,93580.75
2023-03-31T05:20:25.494Z,93595.03
2023-03-31T05:21:22.225Z,93601.22
2023-03-31T05:22:20.805Z,93599.09
2023-03-31T05:23:17.532Z,93599.19
2023-03-31T05:24:14.150Z,93597.03
2023-03-31T05:25:11.933Z,93607.59
2023-03-31T05:26:09.335Z,93596.06
2023-03-31T05:27:06.025Z,93607.13
2023-03-31T05:28:03.091Z,93587.78
2023-03-31T05:28:59.742Z,93600.84
2023-03-31T05:29:56.555Z,93589.41
2023-03-31T05:30:53.203Z,93592.06
2023-03-31T05:31:50.272Z,93573.56
2023-03-31T05:32:46.909Z,93596.00
2023-03-31T05:33:43.542Z,93594.09
2023-03-31T05:34:40.188Z,93593.66
2023-03-31T05:35:36.990Z,93539.78
2023-03-31T05:36:33.669Z,93595.72
2023-03-31T05:37:30.660Z,93597.97
2023-03-31T05:38:31.813Z,93589.41
2023-03-31T05:39:33.058Z,93595.13
2023-03-31T05:40:29.701Z,93590.97
2023-03-31T05:41:26.383Z,93590.50
2023-03-31T05:42:23.138Z,93601.16
2023-03-31T05:43:19.747Z,93594.53
2023-03-31T05:44:16.398Z,93593.56
2023-03-31T05:45:13.042Z,93580.16
2023-03-31T05:46:09.929Z,93587.91
2023-03-31T05:47:06.837Z,93596.94
2023-03-31T05:48:03.682Z,93587.84
2023-03-31T05:49:00.631Z,93580.03
2023-03-31T05:49:57.169Z,93528.78
2023-03-31T05:50:58.705Z,93575.56
2023-03-31T05:51:56.281Z,93595.06
2023-03-31T05:52:52.992Z,93598.69
2023-03-31T05:53:49.640Z,93593.97
2023-03-31T05:54:46.308Z,93543.41
2023-03-31T05:55:42.881Z,93560.25
2023-03-31T05:56:39.808Z,93600.50
2023-03-31T05:57:36.489Z,93602.06
2023-03-31T05:58:36.204Z,93601.88
2023-03-31T05:59:35.143Z,93590.16
2023-03-31T06:00:32.053Z,93593.03
2023-03-31T06:01:30.191Z,93605.38
2023-03-31T06:02:27.093Z,93597.28
2023-03-31T06:03:23.808Z,93603.56
2023-03-31T06:04:20.509Z,93606.63
2023-03-31T06:05:17.169Z,93606.75
2023-03-31T06:06:15.067Z,93579.16
2023-03-31T06:07:11.717Z,93606.63
2023-03-31T06:08:08.376Z,93612.88
2023-03-31T06:09:06.487Z,93613.66
2023-03-31T06:10:03.281Z,93610.78
2023-03-31T06:11:00.397Z,93613.50
2023-03-31T06:11:57.144Z,93611.28
2023-03-31T06:12:53.824Z,93599.09
2023-03-31T06:13:50.514Z,93611.75
2023-03-31T06:14:47.565Z,93594.72
2023-03-31T06:15:44.304Z,93618.94
2023-03-31T06:16:41.186Z,93619.03
2023-03-31T06:17:38.847Z,93607.28
2023-03-31T06:18:36.772Z,93604.81
2023-03-31T06:19:33.472Z,93544.72
2023-03-31T06:20:30.074Z,93607.72
2023-03-31T06:21:26.788Z,93605.13
2023-03-31T06:22:23.929Z,93606.50
2023-03-31T06:23:21.352Z,93606.31
2023-03-31T06:24:18.097Z,93605.47
2023-03-31T06:25:14.824Z,93600.66
2023-03-31T06:26:22.756Z,93611.84
2023-03-31T06:27:19.351Z,93602.56
2023-03-31T06:28:15.988Z,93598.50
2023-03-31T06:29:12.579Z,93602.66
2023-03-31T06:30:09.683Z,93604.63
2023-03-31T06:31:08.698Z,93606.09
2023-03-31T06:32:05.703Z,93607.28
2023-03-31T06:33:02.444Z,93570.69
2023-03-31T06:33:59.121Z,93601.53
2023-03-31T06:34:55.805Z,93603.00
2023-03-31T06:35:56.238Z,93596.56
2023-03-31T06:36:53.515Z,93596.28
2023-03-31T06:37:50.436Z,93599.97
2023-03-31T06:38:48.054Z,93595.50
2023-03-31T06:39:44.814Z,93604.69
2023-03-31T06:40:42.634Z,93600.22
2023-03-31T06:41:39.271Z,93610.81
2023-03-31T06:42:35.930Z,93607.53
2023-03-31T06:43:33.050Z,93601.69
2023-03-31T06:44:29.630Z,93596.72
2023-03-31T06:45:26.206Z,93598.69
2023-03-31T06:46:22.923Z,93602.75
2023-03-31T06:47:19.687Z,93597.41
2023-03-31T06:48:16.345Z,93600.41
2023-03-31T06:49:13.181Z,93598.44
2023-03-31T06:50:10.510Z,93611.09
2023-03-31T06:51:08.114Z,93599.66
2023-03-31T06:52:05.117Z,93598.69
2023-03-31T06:53:01.804Z,93599.59
2023-03-31T06:53:58.426Z,93596.47
2023-03-31T06:54:54.988Z,93584.78
2023-03-31T06:55:52.027Z,93547.88
2023-03-31T06:56:48.671Z,93577.81
2023-03-31T06:57:45.231Z,93576.34
2023-03-31T06:58:41.927Z,93569.69
2023-03-31T06:59:38.520Z,93570.03
2023-03-31T07:00:35.217Z,93573.41
2023-03-31T07:01:31.900Z,93565.84
2023-03-31T07:02:28.739Z,93532.84
2023-03-31T07:03:26.272Z,93563.34
2023-03-31T07:04:23.014Z,93561.44
2023-03-31T07:05:26.642Z,93557.47
2023-03-31T07:06:23.287Z,93563.47
2023-03-31T07:07:19.876Z,93557.78
2023-03-31T07:08:17.798Z,93566.63
2023-03-31T07:09:14.435Z,93559.53
2023-03-31T07:10:11.249Z,93562.09
2023-03-31T07:11:08.160Z,93566.97
2023-03-31T07:12:05.415Z,93569.59
2023-03-31T07:13:03.683Z,93560.34
2023-03-31T07:14:01.783Z,93550.16
2023-03-31T07:14:58.481Z,93584.88
2023-03-31T07:15:56.599Z,93564.88
2023-03-31T07:16:53.362Z,93558.00
2023-03-31T07:17:51.172Z,93568.81
2023-03-31T07:18:47.923Z,93568.06
2023-03-31T07:19:48.249Z,93516.16
2023-03-31T07:20:48.826Z,93563.41
2023-03-31T07:21:45.792Z,93547.88
2023-03-31T07:22:43.702Z,93582.59
2023-03-31T07:23:40.463Z,93564.09
2023-03-31T07:24:37.105Z,93569.59
2023-03-31T07:25:33.966Z,93558.84
2023-03-31T07:26:30.540Z,93568.41
2023-03-31T07:27:27.188Z,93565.69
2023-03-31T07:28:23.852Z,93565.97
2023-03-31T07:29:20.641Z,93573.81
2023-03-31T07:30:19.744Z,93567.81
2023-03-31T07:31:16.461Z,93547.00
2023-03-31T07:32:13.202Z,93546.88
2023-03-31T07:33:10.449Z,93559.88
2023-03-31T07:34:07.250Z,93551.25
2023-03-31T07:35:03.958Z,93558.34
2023-03-31T07:36:12.750Z,93559.66
2023-03-31T07:37:10.481Z,93561.53
2023-03-31T07:38:11.646Z,93560.94
2023-03-31T07:39:08.474Z,93562.97
2023-03-31T07:40:06.411Z,93563.56
2023-03-31T07:41:09.078Z,93563.66
2023-03-31T07:42:06.413Z,93566.19
2023-03-31T07:43:03.389Z,93562.22
2023-03-31T07:44:00.258Z,93505.59
2023-03-31T07:44:57.913Z,93526.72
2023-03-31T07:45:54.614Z,93559.53
2023-03-31T07:46:51.262Z,93555.84
2023-03-31T07:47:48.167Z,93563.59
2023-03-31T07:48:46.633Z,93563.63
2023-03-31T07:49:43.310Z,93560.69
2023-03-31T07:50:40.012Z,93560.69
2023-03-31T07:51:36.618Z,93564.75
2023-03-31T07:52:33.491Z,93560.69
2023-03-31T07:53:30.093Z,93564.06
2023-03-31T07:54:26.749Z,93561.00
2023-03-31T07:55:24.027Z,93560.53
2023-03-31T07:56:23.093Z,93557.81
2023-03-31T07:57:19.947Z,93555.41
2023-03-31T07:58:16.585Z,93556.91
2023-03-31T07:59:13.208Z,93552.81
2023-03-31T08:00:12.687Z,93560.28
2023-03-31T08:01:09.791Z,93490.44
2023-03-31T08:02:07.038Z,93554.50
2023-03-31T08:03:03.957Z,93564.34
2023-03-31T08:04:01.124Z,93460.44
2023-03-31T08:04:57.796Z,93549.22
2023-03-31T08:05:55.365Z,93554.22
2023-03-31T08:06:52.520Z,93557.41
2023-03-31T08:07:50.706Z,93497.47
2023-03-31T08:08:48.099Z,93549.53
2023-03-31T08:09:46.461Z,93532.81
2023-03-31T08:10:43.127Z,93542.13
2023-03-31T08:11:39.798Z,93542.09
2023-03-31T08:12:36.574Z,93540.19
2023-03-31T08:13:33.298Z,93537.41
2023-03-31T08:14:40.743Z,93498.47
2023-03-31T08:15:38.475Z,93534.91
2023-03-31T08:16:35.139Z,93530.47
2023-03-31T08:17:31.861Z,93539.66
2023-03-31T08:18:29.792Z,93531.47
2023-03-31T08:19:27.185Z,93534.78
2023-03-31T08:20:23.944Z,93533.72
2023-03-31T08:21:23.771Z,93525.78
2023-03-31T08:22:23.275Z,93539.75
2023-03-31T08:23:19.993Z,93541.97
2023-03-31T08:24:16.661Z,93534.97
2023-03-31T08:25:13.284Z,93539.88
2023-03-31T08:26:18.089Z,93537.66
2023-03-31T08:27:14.936Z,93539.88
2023-03-31T08:28:14.128Z,93532.66
2023-03-31T08:29:10.847Z,93538.66
2023-03-31T08:30:09.783Z,93533.69
2023-03-31T08:31:08.311Z,93528.47
2023-03-31T08:32:05.353Z,93537.22
2023-03-31T08:33:02.216Z,93532.94
2023-03-31T08:33:59.080Z,93538.41
2023-03-31T08:34:55.641Z,93547.09
2023-03-31T08:35:52.327Z,93541.56
2023-03-31T08:36:49.011Z,93533.94
2023-03-31T08:37:45.899Z,93533.16
2023-03-31T08:38:46.526Z,93528.53
2023-03-31T08:39:43.191Z,93531.50
2023-03-31T08:40:41.747Z,93526.84
2023-03-31T08:41:57.247Z,93533.38
2023-03-31T08:42:57.937Z,93485.22
2023-03-31T08:43:57.687Z,93525.81
2023-03-31T08:45:08.198Z,93520.03
2023-03-31T08:46:05.261Z,93526.91
2023-03-31T08:47:03.859Z,93518.06
2023-03-31T08:48:25.914Z,93515.69
2023-03-31T08:49:24.385Z,93529.88
2023-03-31T08:50:25.572Z,93515.94
2023-03-31T08:51:28.189Z,93524.13
2023-03-31T08:52:30.941Z,93515.06
2023-03-31T08:53:35.937Z,93520.88
2023-03-31T08:54:42.345Z,93481.63
2023-03-31T08:55:51.237Z,93517.00
2023-03-31T08:56:50.748Z,93503.63
2023-03-31T08:58:07.008Z,93476.31
2023-03-31T08:59:03.941Z,93495.53
2023-03-31T09:00:06.982Z,93488.72
2023-03-31T09:01:06.692Z,93489.00
2023-03-31T09:02:28.130Z,93480.94
2023-03-31T09:03:36.073Z,93480.44
2023-03-31T09:04:32.783Z,93490.44
2023-03-31T09:05:49.454Z,93482.00
2023-03-31T09:07:32.233Z,93484.78
2023-03-31T09:08:33.799Z,93486.66
2023-03-31T09:09:33.101Z,93486.28
2023-03-31T09:10:47.265Z,93478.22
2023-03-31T09:11:53.599Z,93484.75
2023-03-31T09:13:01.601Z,93495.94
2023-03-31T09:14:16.311Z,93481.22
2023-03-31T09:15:40.479Z,93497.72
2023-03-31T09:16:46.474Z,93491.69
2023-03-31T09:17:48.918Z,93495.88
2023-03-31T09:18:47.079Z,93476.34
2023-03-31T09:19:59.005Z,93490.56
2023-03-31T09:21:08.368Z,93500.75
2023-03-31T09:22:33.097Z,93483.41
2023-03-31T09:23:38.371Z,93476.09
2023-03-31T09:24:47.607Z,93489.44
2023-03-31T09:25:46.554Z,93451.81
2023-03-31T09:26:49.364Z,93480.75
2023-03-31T09:27:47.759Z,93474.53
2023-03-31T09:28:45.641Z,93477.63
2023-03-31T09:29:52.741Z,93478.41
2023-03-31T09:30:50.452Z,93476.88
2023-03-31T09:31:48.545Z,93486.69
2023-03-31T09:32:48.313Z,93487.56
2023-03-31T09:33:46.801Z,93487.38
2023-03-31T09:34:44.652Z,93472.81
2023-03-31T09:35:41.960Z,93489.72
2023-03-31T09:36:39.545Z,93479.72
2023-03-31T09:37:36.308Z,93478.53
2023-03-31T09:38:33.083Z,93480.47
2023-03-31T09:39:29.739Z,93476.63
2023-03-31T09:40:29.107Z,93474.31
2023-03-31T09:41:25.985Z,93474.69
2023-03-31T09:42:22.596Z,93470.53
2023-03-31T09:43:25.166Z,93484.31
2023-03-31T09:44:24.856Z,93479.34
2023-03-31T09:45:21.707Z,93470.03
2023-03-31T09:46:35.016Z,93472.00
2023-03-31T09:47:40.438Z,93426.19
2023-03-31T09:48:38.781Z,93471.19
2023-03-31T09:49:37.156Z,93472.75
2023-03-31T09:50:44.704Z,93474.31
2023-03-31T09:51:49.028Z,93462.84
2023-03-31T09:52:55.820Z,93463.97
2023-03-31T09:54:01.688Z,93436.59
2023-03-31T09:55:01.509Z,93416.31
2023-03-31T09:56:03.165Z,93455.56
2023-03-31T09:57:00.186Z,93456.31
2023-03-31T09:57:59.950Z,93459.34
2023-03-31T09:59:02.172Z,93451.97
2023-03-31T10:00:07.795Z,93457.75
2023-03-31T10:01:07.548Z,93452.47
2023-03-31T10:02:35.157Z,93434.75
2023-03-31T10:03:37.099Z,93427.47
2023-03-31T10:04:35.229Z,93440.28
2023-03-31T10:05:43.447Z,93442.81
2023-03-31T10:06:42.307Z,93427.84
2023-03-31T10:07:39.006Z,93426.69
2023-03-31T10:09:01.396Z,93437.56
2023-03-31T10:09:58.104Z,93439.59
2023-03-31T10:11:11.357Z,93433.44
2023-03-31T10:12:20.298Z,93433.66
2023-03-31T10:13:20.999Z,93428.19
2023-03-31T10:14:17.855Z,93436.06
2023-03-31T10:15:27.660Z,93426.31
2023-03-31T10:16:43.262Z,93286.56
2023-03-31T10:17:54.891Z,93423.59
2023-03-31T10:18:52.194Z,93443.63
2023-03-31T10:19:51.921Z,93407.88
2023-03-31T10:20:52.823Z,93431.31
2023-03-31T10:21:57.289Z,93415.59
2023-03-31T10:22:53.905Z,93430.53
2023-03-31T10:23:51.519Z,93427.47
2023-03-31T10:24:50.137Z,93390.59
2023-03-31T10:25:47.782Z,93435.19
2023-03-31T10:26:53.262Z,93420.97
2023-03-31T10:27:56.687Z,93378.66
2023-03-31T10:28:55.505Z,93404.00
2023-03-31T10:29:58.074Z,93426.28
2023-03-31T10:30:55.948Z,93425.16
2023-03-31T10:31:52.942Z,93425.94
2023-03-31T10:32:52.558Z,93423.25
2023-03-31T10:33:52.212Z,93423.25
2023-03-31T10:34:49.286Z,93381.00
2023-03-31T10:35:50.418Z,93425.56
2023-03-31T10:36:50.112Z,93418.63
2023-03-31T10:37:48.675Z,93412.09
2023-03-31T10:38:48.261Z,93417.88
2023-03-31T10:39:47.234Z,93397.41
2023-03-31T10:40:51.981Z,93413.50
2023-03-31T10:41:53.125Z,93362.97
2023-03-31T10:43:20.835Z,93401.31
2023-03-31T10:44:43.455Z,93400.66
2023-03-31T10:45:51.713Z,93407.28
2023-03-31T10:46:50.205Z,93410.91
2023-03-31T10:47:50.026Z,93400.47
2023-03-31T10:48:51.335Z,93398.94
2023-03-31T10:49:51.791Z,93401.34
2023-03-31T10:50:48.685Z,93395.59
2023-03-31T10:51:56.499Z,93394.66
2023-03-31T10:52:53.262Z,93414.38
2023-03-31T10:53:52.841Z,93363.31
2023-03-31T10:54:57.311Z,93399.03
2023-03-31T10:56:03.124Z,93405.13
2023-03-31T10:57:03.570Z,93405.97
2023-03-31T10:58:29.995Z,93387.53
2023-03-31T10:59:37.710Z,93388.28
2023-03-31T11:01:17.119Z,93396.19
2023-03-31T11:02:39.324Z,93385.13
2023-03-31T11:03:55.017Z,93381.75
2023-03-31T11:05:25.491Z,93390.97
2023-03-31T11:06:36.554Z,93383.19
2023-03-31T11:07:33.615Z,93377.75
2023-03-31T11:08:53.219Z,93371.47
2023-03-31T11:10:08.249Z,93383.91
2023-03-31T11:11:23.422Z,93378.91
2023-03-31T11:12:27.646Z,93381.59
2023-03-31T11:13:59.375Z,93380.09
2023-03-31T11:15:19.665Z,93367.50
2023-03-31T11:16:32.851Z,93362.50
2023-03-31T11:17:48.279Z,93368.16
2023-03-31T11:18:54.321Z,93369.03
2023-03-31T11:20:17.309Z,93363.69
2023-03-31T11:21:48.050Z,93371.41
2023-03-31T11:22:59.921Z,93254.69
2023-03-31T11:24:26.377Z,93361.03
2023-03-31T11:25:35.660Z,93379.47
2023-03-31T11:26:56.124Z,93366.78
2023-03-31T11:28:06.912Z,93364.09
2023-03-31T11:29:34.301Z,93361.03
2023-03-31T11:30:40.037Z,93367.94
2023-03-31T11:31:58.036Z,93361.03
2023-03-31T11:33:28.706Z,93352.22
2023-03-31T11:34:53.315Z,93362.19
2023-03-31T11:36:04.522Z,93353.38
2023-03-31T11:37:11.920Z,93353.72
2023-03-31T11:38:24.717Z,93356.75
2023-03-31T11:39:42.966Z,93348.25
2023-03-31T11:40:58.844Z,93351.41
2023-03-31T11:42:02.113Z,93324.88
2023-03-31T11:43:21.877Z,93353.69
2023-03-31T11:44:20.924Z,93335.66
2023-03-31T11:45:53.414Z,93344.50
2023-03-31T11:47:03.409Z,93348.34
2023-03-31T11:48:07.515Z,93337.53
2023-03-31T11:49:11.918Z,93351.81
2023-03-31T11:50:16.472Z,93344.50
2023-03-31T11:51:48.507Z,93350.63
2023-03-31T11:53:09.990Z,93349.47
2023-03-31T11:54:12.324Z,93333.75
2023-03-31T11:55:15.608Z,93337.97
2023-03-31T11:56:13.189Z,93327.53
2023-03-31T11:57:19.788Z,93330.13
2023-03-31T11:58:21.738Z,93323.00
2023-03-31T11:59:21.530Z,93330.19
2023-03-31T12:00:27.470Z,93293.34
2023-03-31T12:01:27.731Z,93321.34
2023-03-31T12:02:48.634Z,93290.09
2023-03-31T12:04:13.319Z,93315.91
2023-03-31T12:05:12.878Z,93309.38
2023-03-31T12:06:19.986Z,93304.81